This is the latest recevied weather packets stored in our database for station/object KN6DHD. If no packets are shown the sender has not sent any weather packets the latest 10 day(s).
| Time | Temp. | Humidity | Pressure | Rain* | Wind** | Luminosity | Snow |
|---|---|---|---|---|---|---|---|
| 1778099263 | 24.44° C | 54% | 1020 hPa | 0 mm | - | 704 W/m² | - |
| 1778098959 | 23.89° C | 54% | 1020.1 hPa | 0 mm | - | 670 W/m² | - |
| 1778098656 | 23.89° C | 57% | 1020.2 hPa | 0 mm | - | 701 W/m² | - |
| 1778098353 | 23.89° C | 55% | 1020 hPa | 0 mm | - | 691 W/m² | - |
| 1778098050 | 23.33° C | 56% | 1020.2 hPa | 0 mm | - | 701 W/m² | - |
| 1778097747 | 22.78° C | 59% | 1020.4 hPa | 0 mm | - | 690 W/m² | - |
| 1778097443 | 22.78° C | 57% | 1020.3 hPa | 0 mm | - | 644 W/m² | - |
| 1778097139 | 22.78° C | 59% | 1020.3 hPa | 0 mm | - | 356 W/m² | - |
| 1778096836 | 22.78° C | 58% | 1020.6 hPa | 0 mm | - | 609 W/m² | - |
| 1778096533 | 22.22° C | 61% | 1020.5 hPa | 0 mm | - | 475 W/m² | - |
| 1778096231 | 22.22° C | 60% | 1020.6 hPa | 0 mm | - | 305 W/m² | - |
| 1778095927 | 22.22° C | 61% | 1020.6 hPa | 0 mm | - | 275 W/m² | - |
| 1778095624 | 22.22° C | 61% | 1020.9 hPa | 0 mm | - | 279 W/m² | - |
| 1778095321 | 22.22° C | 62% | 1020.7 hPa | 0 mm | - | 353 W/m² | - |
| 1778095018 | 22.22° C | 62% | 1020.6 hPa | 0 mm | - | 779 W/m² | - |
| 1778094714 | 21.67° C | 65% | 1020.8 hPa | 0 mm | - | 703 W/m² | - |
| 1778094411 | 21.67° C | 64% | 1020.9 hPa | 0 mm | - | 709 W/m² | - |
| 1778094108 | 20.56° C | 67% | 1021 hPa | 0 mm | - | 691 W/m² | - |
| 1778093805 | 20.56° C | 67% | 1020.9 hPa | 0 mm | - | 592 W/m² | - |
| 1778093501 | 20.56° C | 66% | 1020.7 hPa | 0 mm | - | 622 W/m² | - |
| 1778093199 | 21.11° C | 65% | 1021 hPa | 0 mm | - | 626 W/m² | - |
| 1778092896 | 20.56° C | 69% | 1021.1 hPa | 0 mm | - | 147 W/m² | - |
| 1778092592 | 20.56° C | 67% | 1021.2 hPa | 0 mm | - | 266 W/m² | - |
| 1778092288 | 20.56° C | 68% | 1021 hPa | 0 mm | - | 307 W/m² | - |
| 1778091986 | 20.56° C | 69% | 1021.1 hPa | 0 mm | - | 324 W/m² | - |
* Rain latest hour (hover to see other rain measurements)
** Current wind speed in m/s (hover to see current wind gust speed)